createdAt,value
2018-02-23T00:04:45.614Z,99.90
2018-02-23T00:09:49.625Z,99.90
2018-02-23T00:14:57.504Z,99.90
2018-02-23T00:20:01.477Z,99.90
2018-02-23T00:25:06.237Z,99.90
2018-02-23T00:30:09.413Z,99.90
2018-02-23T00:35:14.668Z,99.90
2018-02-23T00:40:18.873Z,99.90
2018-02-23T00:45:27.518Z,99.90
2018-02-23T00:50:30.908Z,99.90
2018-02-23T00:55:35.865Z,99.90
2018-02-23T01:00:39.456Z,99.90
2018-02-23T01:05:44.085Z,99.90
2018-02-23T01:10:48.822Z,99.90
2018-02-23T01:15:53.933Z,99.90
2018-02-23T01:20:57.401Z,99.80
2018-02-23T01:26:02.678Z,99.90
2018-02-23T01:31:06.677Z,99.90
2018-02-23T01:36:11.691Z,99.90
2018-02-23T01:41:15.712Z,99.90
2018-02-23T01:46:19.129Z,99.70
2018-02-23T01:51:23.666Z,99.90
2018-02-23T01:56:28.269Z,99.90
2018-02-23T02:01:32.277Z,99.90
2018-02-23T02:06:37.052Z,99.90
2018-02-23T02:11:40.822Z,99.90
2018-02-23T02:16:48.549Z,99.90
2018-02-23T02:21:52.165Z,99.90
2018-02-23T02:26:57.393Z,99.90
2018-02-23T02:32:00.629Z,99.90
2018-02-23T02:37:07.473Z,99.90
2018-02-23T02:42:10.873Z,99.90
2018-02-23T02:47:17.377Z,99.90
2018-02-23T02:52:20.694Z,99.90
2018-02-23T02:57:28.511Z,99.90
2018-02-23T03:02:33.128Z,99.90
2018-02-23T03:07:40.606Z,99.90
2018-02-23T03:12:44.526Z,99.90
2018-02-23T03:17:48.954Z,99.90
2018-02-23T03:22:52.246Z,99.90
2018-02-23T03:27:56.961Z,99.90
2018-02-23T03:33:01.136Z,99.90
2018-02-23T03:38:07.716Z,99.90
2018-02-23T03:43:11.021Z,99.80
2018-02-23T03:48:15.270Z,99.80
2018-02-23T03:53:19.029Z,99.70
2018-02-23T03:58:22.465Z,99.90
2018-02-23T04:03:29.648Z,99.90
2018-02-23T04:08:33.098Z,99.90
2018-02-23T04:13:38.228Z,99.90
2018-02-23T04:18:41.649Z,99.90
2018-02-23T04:23:46.517Z,99.90
2018-02-23T04:28:50.071Z,99.90
2018-02-23T04:33:57.224Z,99.90
2018-02-23T04:39:01.329Z,99.90
2018-02-23T04:44:08.478Z,99.90
2018-02-23T04:49:12.050Z,99.90
2018-02-23T04:54:16.328Z,99.90
2018-02-23T04:59:20.509Z,99.90
2018-02-23T05:04:25.153Z,99.90
2018-02-23T05:09:29.633Z,99.90
2018-02-23T05:14:33.677Z,99.90
2018-02-23T05:19:38.145Z,99.90
2018-02-23T05:24:41.850Z,99.90
2018-02-23T05:29:45.508Z,99.90
2018-02-23T05:34:49.044Z,99.90
2018-02-23T05:39:53.329Z,99.90
2018-02-23T05:45:00.549Z,99.90
2018-02-23T05:50:04.817Z,99.90
2018-02-23T05:55:09.618Z,99.90
2018-02-23T06:00:13.401Z,99.80
2018-02-23T06:05:19.978Z,99.80
2018-02-23T06:10:23.527Z,99.80
2018-02-23T06:15:26.866Z,99.80
2018-02-23T06:20:30.534Z,99.90
2018-02-23T06:25:35.546Z,99.90
2018-02-23T06:30:39.723Z,99.90
2018-02-23T06:35:43.489Z,99.90
2018-02-23T06:40:47.537Z,99.90
2018-02-23T06:45:56.950Z,99.80
2018-02-23T06:51:00.842Z,99.70
2018-02-23T06:56:04.557Z,99.60
2018-02-23T07:01:09.006Z,99.40
2018-02-23T07:06:16.093Z,99.60
2018-02-23T07:11:19.385Z,99.30
2018-02-23T07:16:26.106Z,98.90
2018-02-23T07:21:29.578Z,99.00
2018-02-23T07:26:34.873Z,99.10
2018-02-23T07:31:38.303Z,98.60
2018-02-23T07:36:45.722Z,98.80
2018-02-23T07:41:49.048Z,98.70
2018-02-23T07:46:53.665Z,98.70
2018-02-23T07:51:57.479Z,98.50
2018-02-23T07:57:02.011Z,98.30
2018-02-23T08:02:05.679Z,98.20
2018-02-23T08:07:10.550Z,97.80
2018-02-23T08:12:14.724Z,96.80
2018-02-23T08:17:20.098Z,97.50
2018-02-23T08:22:24.641Z,96.10
2018-02-23T08:27:34.717Z,95.70
2018-02-23T08:32:38.313Z,96.00
2018-02-23T08:37:43.305Z,95.10
2018-02-23T08:42:51.554Z,95.10
2018-02-23T08:47:55.773Z,95.70
2018-02-23T08:53:03.029Z,94.90
2018-02-23T08:58:06.404Z,94.80
2018-02-23T09:03:10.325Z,94.70
2018-02-23T09:08:13.933Z,94.60
2018-02-23T09:13:21.169Z,94.30
2018-02-23T09:18:25.414Z,94.90
2018-02-23T09:23:30.685Z,93.00
2018-02-23T09:28:34.491Z,92.90
2018-02-23T10:36:43.519Z,87.10
2018-02-23T10:41:47.733Z,84.50
2018-02-23T10:46:54.251Z,84.90
2018-02-23T10:51:58.759Z,84.40
2018-02-23T10:57:04.411Z,85.50
2018-02-23T11:02:10.764Z,86.40
2018-02-23T11:07:16.346Z,84.80
2018-02-23T11:12:22.519Z,84.60
2018-02-23T11:17:27.017Z,81.70
2018-02-23T11:22:35.414Z,79.60
2018-02-23T11:27:42.064Z,81.40
2018-02-23T11:32:49.455Z,81.30
2018-02-23T11:37:54.898Z,78.20
2018-02-23T11:43:01.708Z,78.00
2018-02-23T11:48:08.237Z,79.70
2018-02-23T11:53:13.900Z,80.00
2018-02-23T11:58:18.892Z,79.70
2018-02-23T12:03:51.400Z,75.60
2018-02-23T12:08:55.579Z,74.10
2018-02-23T12:14:04.583Z,75.00
2018-02-23T12:19:08.887Z,74.10
2018-02-23T12:24:20.042Z,70.50
2018-02-23T12:29:25.591Z,70.50
2018-02-23T12:34:31.747Z,68.50
2018-02-23T12:39:38.649Z,67.70
2018-02-23T12:44:45.968Z,63.00
2018-02-23T12:49:51.264Z,69.60
2018-02-23T12:55:00.067Z,70.80
2018-02-23T13:00:04.695Z,68.20
2018-02-23T13:05:12.572Z,71.20
2018-02-23T13:10:17.067Z,73.50
2018-02-23T13:15:24.912Z,76.10
2018-02-23T13:20:30.673Z,76.20
2018-02-23T13:25:35.929Z,76.00
2018-02-23T13:30:41.360Z,78.80
2018-02-23T13:35:46.456Z,78.70
2018-02-23T13:40:56.773Z,77.50
2018-02-23T13:46:07.196Z,78.90
2018-02-23T13:51:11.702Z,78.70
2018-02-23T13:56:17.323Z,78.50
2018-02-23T14:01:21.147Z,79.00
2018-02-23T14:06:40.839Z,79.20
2018-02-23T14:11:50.140Z,78.40
2018-02-23T14:17:00.429Z,78.50
2018-02-23T14:22:07.901Z,82.70
2018-02-23T14:27:11.201Z,76.60
2018-02-23T14:32:16.063Z,79.20
2018-02-23T14:37:20.213Z,79.90
2018-02-23T14:42:24.910Z,80.00
2018-02-23T14:47:28.486Z,80.40
2018-02-23T14:52:33.266Z,80.60
2018-02-23T14:57:36.951Z,82.20
2018-02-23T15:02:40.762Z,83.00
2018-02-23T15:07:44.152Z,81.50
2018-02-23T15:12:48.071Z,82.50
2018-02-23T15:17:52.849Z,84.00
2018-02-23T15:23:00.517Z,84.00
2018-02-23T15:28:03.829Z,85.50
2018-02-23T15:33:08.193Z,84.70
2018-02-23T15:38:12.352Z,86.60
2018-02-23T15:43:19.434Z,86.50
2018-02-23T15:53:52.898Z,88.00
2018-02-23T15:58:56.318Z,89.50
2018-02-23T16:04:02.886Z,90.00
2018-02-23T16:09:06.277Z,90.00
2018-02-23T16:14:09.798Z,88.50
2018-02-23T16:19:14.206Z,90.00
2018-02-23T16:24:17.878Z,90.00
2018-02-23T16:29:22.795Z,91.00
2018-02-23T16:34:26.611Z,90.90
2018-02-23T16:39:30.855Z,91.10
2018-02-23T16:44:37.986Z,91.20
2018-02-23T16:49:42.024Z,91.80
2018-02-23T16:54:45.777Z,91.80
2018-02-23T16:59:49.091Z,92.20
2018-02-23T17:04:52.774Z,93.00
2018-02-23T17:09:56.165Z,92.70
2018-02-23T17:15:03.007Z,92.90
2018-02-23T17:20:07.150Z,92.90
2018-02-23T17:25:14.843Z,93.20
2018-02-23T17:30:18.371Z,92.90
2018-02-23T17:35:21.900Z,93.20
2018-02-23T17:40:27.218Z,93.20
2018-02-23T17:45:31.095Z,93.20
2018-02-23T17:50:35.238Z,93.00
2018-02-23T17:55:38.785Z,93.20
2018-02-23T18:00:43.034Z,93.70
2018-02-23T18:05:49.968Z,93.60
2018-02-23T18:10:54.255Z,93.50
2018-02-23T18:16:02.251Z,93.60
2018-02-23T18:21:05.884Z,93.20
2018-02-23T18:26:10.872Z,93.40
2018-02-23T18:31:21.109Z,93.50
2018-02-23T18:36:25.299Z,93.70
2018-02-23T18:41:29.458Z,93.70
2018-02-23T18:46:32.752Z,93.70
2018-02-23T18:51:39.649Z,93.20
2018-02-23T18:56:44.093Z,93.30
2018-02-23T19:01:47.671Z,92.90
2018-02-23T19:06:52.734Z,93.00
2018-02-23T19:11:57.708Z,93.00
2018-02-23T19:17:02.589Z,93.00
2018-02-23T19:22:08.998Z,92.90
2018-02-23T19:27:13.755Z,93.20
2018-02-23T19:32:17.623Z,93.30
2018-02-23T19:37:21.548Z,93.20
2018-02-23T19:42:26.202Z,93.40
2018-02-23T19:47:30.443Z,93.10
2018-02-23T19:52:33.934Z,93.20
2018-02-23T19:57:37.308Z,93.50
2018-02-23T20:02:40.845Z,93.30
2018-02-23T20:07:44.682Z,93.20
2018-02-23T20:12:48.455Z,93.50
2018-02-23T20:17:52.784Z,93.30
2018-02-23T20:22:57.639Z,93.60
2018-02-23T20:28:01.062Z,93.40
2018-02-23T20:33:04.841Z,93.70
2018-02-23T20:38:08.838Z,93.80
2018-02-23T20:43:13.121Z,93.50
2018-02-23T20:48:17.282Z,93.40
2018-02-23T20:53:24.431Z,93.70
2018-02-23T20:58:28.314Z,93.80
2018-02-23T21:03:33.485Z,93.90
2018-02-23T21:08:37.551Z,93.80
2018-02-23T21:13:44.737Z,94.00
2018-02-23T21:18:48.176Z,94.20
2018-02-23T21:23:55.019Z,94.10
2018-02-23T21:28:59.264Z,94.10
2018-02-23T21:34:05.962Z,93.70
2018-02-23T21:39:09.436Z,94.00
2018-02-23T21:44:14.365Z,93.90
2018-02-23T21:49:18.514Z,94.10
2018-02-23T21:54:25.658Z,94.10
2018-02-23T21:59:29.754Z,93.70
2018-02-23T22:04:33.599Z,93.80
2018-02-23T22:09:37.258Z,93.60
2018-02-23T22:14:43.734Z,93.30
2018-02-23T22:19:47.266Z,93.60
2018-02-23T22:24:50.952Z,93.10
2018-02-23T22:29:54.813Z,93.20
2018-02-23T22:35:01.750Z,93.20
2018-02-23T22:40:05.166Z,93.30
2018-02-23T22:45:09.998Z,93.20
2018-02-23T22:50:13.486Z,93.10
2018-02-23T22:55:16.860Z,92.90
2018-02-23T23:00:20.415Z,93.00
2018-02-23T23:05:24.734Z,92.70
2018-02-23T23:10:29.705Z,91.70
2018-02-23T23:15:33.066Z,92.00
2018-02-23T23:20:37.570Z,92.60
2018-02-23T23:25:40.966Z,92.30
2018-02-23T23:30:46.398Z,92.30
2018-02-23T23:35:50.561Z,92.30
2018-02-23T23:40:54.904Z,93.30
2018-02-23T23:45:58.455Z,92.70
2018-02-23T23:51:03.890Z,92.60
2018-02-23T23:56:08.157Z,94.00
